Time;durP1;ratioP1;P1;durP2;ratioP2;P2;SDS_P1;SDS_P2;PMS_P1;PMS_P2;Temp;Humidity;BMP_temperature;BMP_pressure;BME280_temperature;BME280_humidity;BME280_pressure;Samples;Min_cycle;Max_cycle;Signal;HPM_P1;HPM_P2
2022/03/03 00:01:44;;;;;;;;;0.00;0.00;;;;;9.31;74.53;100760.81;5024372;28;45416;-71
2022/03/03 00:04:11;;;;;;;;;0.25;0.00;;;;;9.25;74.16;100757.06;5026784;28;46287;-70
2022/03/03 00:06:37;;;;;;;;;0.00;0.00;;;;;9.28;74.25;100760.69;5027833;28;45441;-71
2022/03/03 00:09:04;;;;;;;;;0.00;0.00;;;;;9.27;73.99;100760.59;5028024;28;45642;-72
2022/03/03 00:11:30;;;;;;;;;0.00;0.00;;;;;9.19;74.26;100749.91;5029662;28;45572;-70
2022/03/03 00:13:59;;;;;;;;;0.00;0.00;;;;;9.12;74.69;100742.69;5026048;28;45558;-71
2022/03/03 00:16:26;;;;;;;;;0.00;0.00;;;;;9.08;74.45;100735.56;5027151;28;45470;-70
2022/03/03 00:18:51;;;;;;;;;0.00;0.00;;;;;9.02;74.66;100736.22;5028655;28;45453;-70
2022/03/03 00:21:18;;;;;;;;;0.00;0.00;;;;;9.05;74.61;100730.22;5027695;28;45385;-71
2022/03/03 00:23:44;;;;;;;;;0.25;0.00;;;;;9.01;74.38;100728.31;5027206;28;45680;-70
2022/03/03 00:26:10;;;;;;;;;1.00;0.00;;;;;9.09;74.44;100745.16;5028677;28;45529;-73
2022/03/03 00:28:35;;;;;;;;;0.00;0.00;;;;;9.09;73.78;100737.31;5025854;28;45419;-70
2022/03/03 00:31:01;;;;;;;;;0.50;0.00;;;;;9.01;73.71;100716.19;5028217;28;45544;-72
2022/03/03 00:33:27;;;;;;;;;0.50;0.00;;;;;9.07;74.11;100728.56;5028712;28;45402;-70
2022/03/03 00:35:52;;;;;;;;;2.00;2.00;;;;;9.06;74.32;100734.63;5026641;28;45712;-71
2022/03/03 00:38:18;;;;;;;;;2.75;2.75;;;;;9.02;73.98;100728.41;5027903;28;45372;-70
2022/03/03 00:40:44;;;;;;;;;1.00;0.50;;;;;8.78;73.90;100693.56;5028573;28;45423;-71
2022/03/03 00:43:09;;;;;;;;;0.75;0.00;;;;;8.89;74.28;100714.00;5026470;28;46383;-71
2022/03/03 00:45:36;;;;;;;;;1.75;1.00;;;;;8.95;74.13;100718.56;5027943;28;45362;-70
2022/03/03 00:48:03;;;;;;;;;2.00;0.00;;;;;8.83;74.66;100698.09;5028046;28;45652;-72
2022/03/03 00:50:28;;;;;;;;;0.00;0.00;;;;;8.80;74.42;100697.13;5026716;28;45597;-71
2022/03/03 00:52:54;;;;;;;;;0.00;0.00;;;;;8.86;74.62;100706.06;5028077;28;45562;-70
2022/03/03 00:55:20;;;;;;;;;0.25;0.00;;;;;8.80;74.43;100692.81;5027356;28;45444;-71
2022/03/03 00:57:45;;;;;;;;;0.00;0.00;;;;;8.65;74.92;100663.53;5026678;28;45518;-70
2022/03/03 01:00:11;;;;;;;;;0.00;0.00;;;;;8.78;75.03;100693.56;5028685;28;45514;-70
2022/03/03 01:02:37;;;;;;;;;0.00;0.00;;;;;8.82;74.87;100695.47;5026886;28;45806;-70
2022/03/03 01:05:04;;;;;;;;;0.25;0.00;;;;;8.78;74.84;100683.16;5027047;28;45510;-71
2022/03/03 01:07:30;;;;;;;;;0.00;0.00;;;;;8.79;74.75;100682.31;5028798;28;45474;-70
2022/03/03 01:09:55;;;;;;;;;0.00;0.00;;;;;8.74;74.29;100679.53;5026997;28;45362;-70
2022/03/03 01:12:21;;;;;;;;;0.00;0.00;;;;;8.80;74.44;100676.28;5026866;28;45486;-70
2022/03/03 01:14:47;;;;;;;;;0.00;0.00;;;;;8.79;74.36;100677.97;5027937;28;45417;-73
2022/03/03 01:17:13;;;;;;;;;0.00;0.00;;;;;8.78;73.61;100665.81;5026209;28;45533;-71
2022/03/03 01:19:40;;;;;;;;;0.00;0.00;;;;;8.72;74.03;100652.53;5027562;28;45273;-71
2022/03/03 01:22:06;;;;;;;;;0.00;0.00;;;;;8.66;74.72;100647.09;5027678;28;45449;-71
2022/03/03 01:24:32;;;;;;;;;1.00;0.00;;;;;8.64;74.71;100646.16;5026072;28;45382;-71
2022/03/03 01:26:58;;;;;;;;;0.50;0.00;;;;;8.65;74.72;100650.50;5027518;28;45463;-70
2022/03/03 01:29:24;;;;;;;;;0.00;0.00;;;;;8.50;74.75;100636.06;5027725;28;46025;-71
2022/03/03 01:31:50;;;;;;;;;0.00;0.00;;;;;8.45;75.14;100637.59;5025629;28;45430;-70
2022/03/03 01:34:15;;;;;;;;;0.00;0.00;;;;;8.45;75.31;100642.78;5027618;28;45414;-72
2022/03/03 01:36:41;;;;;;;;;0.00;0.00;;;;;8.26;75.08;100614.25;5027360;28;45431;-73
2022/03/03 01:39:07;;;;;;;;;0.00;0.00;;;;;8.34;75.13;100626.72;5026187;28;45483;-71
2022/03/03 01:41:34;;;;;;;;;0.00;0.00;;;;;8.38;75.67;100630.34;5043294;28;45577;-71
2022/03/03 01:43:59;;;;;;;;;0.00;0.00;;;;;8.32;75.23;100620.56;5026892;28;45447;-70
2022/03/03 01:46:25;;;;;;;;;0.00;0.00;;;;;8.36;75.30;100626.78;5026005;28;45550;-72
2022/03/03 01:48:51;;;;;;;;;0.00;0.00;;;;;8.26;75.28;100601.22;5028175;28;45595;-71
2022/03/03 01:51:16;;;;;;;;;3.75;2.00;;;;;8.22;74.54;100592.41;5025951;28;45581;-72
2022/03/03 01:53:42;;;;;;;;;13.00;4.75;;;;;8.38;75.08;100609.53;5026230;28;45502;-71
2022/03/03 01:56:08;;;;;;;;;13.75;9.50;;;;;8.40;75.03;100604.38;5042852;28;45493;-71
2022/03/03 01:58:36;;;;;;;;;5.50;4.00;;;;;8.26;74.60;100568.28;5025598;28;45387;-70
2022/03/03 02:01:01;;;;;;;;;9.00;7.75;;;;;8.40;74.72;100589.66;5026360;28;45441;-71
2022/03/03 02:03:27;;;;;;;;;6.00;3.75;;;;;8.44;74.27;100582.88;5027019;28;45323;-70
2022/03/03 02:05:53;;;;;;;;;2.00;2.00;;;;;8.46;74.21;100589.03;5025155;28;45402;-71
2022/03/03 02:08:18;;;;;;;;;3.25;2.75;;;;;8.49;74.41;100581.31;5027332;28;45525;-70
2022/03/03 02:10:44;;;;;;;;;2.00;2.00;;;;;8.41;74.84;100569.69;5026636;28;46042;-70
2022/03/03 02:13:09;;;;;;;;;1.00;1.00;;;;;8.41;74.92;100572.31;5025207;28;45319;-72
2022/03/03 02:15:35;;;;;;;;;1.00;1.00;;;;;8.31;74.60;100547.63;5027083;28;45493;-70
2022/03/03 02:18:01;;;;;;;;;0.00;0.00;;;;;8.35;74.48;100546.91;5026752;28;45380;-72
2022/03/03 02:20:29;;;;;;;;;0.00;0.00;;;;;8.45;74.50;100566.41;5025371;28;46646;-70
2022/03/03 02:22:56;;;;;;;;;0.00;0.00;;;;;8.41;74.51;100554.06;5025268;28;45369;-71
2022/03/03 02:25:24;;;;;;;;;1.00;1.00;;;;;8.44;74.72;100562.06;5025883;28;45402;-70
2022/03/03 02:27:50;;;;;;;;;0.00;0.00;;;;;8.36;74.49;100552.19;5026544;28;45516;-72
2022/03/03 02:30:17;;;;;;;;;0.00;0.00;;;;;8.36;74.62;100548.69;5025089;28;45556;-70
2022/03/03 02:32:44;;;;;;;;;0.00;0.00;;;;;8.30;75.16;100548.47;5025583;28;45462;-72
2022/03/03 02:35:10;;;;;;;;;0.00;0.00;;;;;8.20;74.81;100543.69;5027040;28;45391;-71
2022/03/03 02:37:39;;;;;;;;;0.00;0.00;;;;;8.09;74.96;100531.16;5025424;28;45503;-72
2022/03/03 02:40:07;;;;;;;;;0.00;0.00;;;;;8.09;75.38;100544.16;5025287;28;45533;-71
2022/03/03 02:42:33;;;;;;;;;0.00;0.00;;;;;7.96;75.02;100515.91;5026921;28;45356;-71
2022/03/03 02:44:59;;;;;;;;;0.00;0.00;;;;;7.88;75.46;100515.59;5025943;28;45929;-72
2022/03/03 02:47:25;;;;;;;;;0.00;0.00;;;;;7.85;75.94;100511.97;5025443;28;45339;-71
2022/03/03 02:49:50;;;;;;;;;0.00;0.00;;;;;7.81;76.13;100502.28;5026415;28;45350;-73
2022/03/03 02:52:16;;;;;;;;;0.50;0.00;;;;;7.81;75.42;100489.28;5024913;28;45359;-70
2022/03/03 02:54:41;;;;;;;;;0.00;0.00;;;;;7.83;75.56;100485.03;5025696;28;45378;-71
2022/03/03 02:59:52;;;;;;;;;0.00;0.00;;;;;7.89;75.38;100496.56;5026475;28;45957;-71
2022/03/03 03:02:17;;;;;;;;;0.00;0.00;;;;;7.91;75.69;100496.63;5025009;28;45385;-71
2022/03/03 03:04:43;;;;;;;;;0.00;0.00;;;;;7.85;75.63;100491.19;5023996;28;45409;-71
2022/03/03 03:07:08;;;;;;;;;0.00;0.00;;;;;7.85;75.67;100496.38;5026879;28;45561;-71
2022/03/03 03:09:34;;;;;;;;;1.00;0.00;;;;;7.76;75.86;100471.78;5023041;28;47544;-71
2022/03/03 03:12:00;;;;;;;;;0.00;0.00;;;;;7.73;75.49;100455.16;5025903;28;45580;-70
2022/03/03 03:14:25;;;;;;;;;0.00;0.00;;;;;7.82;75.07;100455.53;5026007;28;45535;-71
2022/03/03 03:16:51;;;;;;;;;0.00;0.00;;;;;7.99;74.22;100468.31;5026126;28;45474;-71
2022/03/03 03:19:16;;;;;;;;;0.00;0.00;;;;;7.97;74.54;100453.53;5036979;28;45561;-71
2022/03/03 03:21:42;;;;;;;;;0.00;0.00;;;;;7.95;74.54;100449.09;5037150;28;45471;-71
2022/03/03 03:24:07;;;;;;;;;0.00;0.00;;;;;8.10;74.12;100452.28;5037099;28;45341;-71
2022/03/03 03:26:33;;;;;;;;;0.00;0.00;;;;;8.11;73.66;100428.03;5037505;28;45230;-72
2022/03/03 03:28:59;;;;;;;;;0.00;0.00;;;;;8.19;73.17;100419.66;5037001;28;45342;-71
2022/03/03 03:31:24;;;;;;;;;0.50;0.00;;;;;8.28;73.15;100417.41;5037070;28;45389;-71
2022/03/03 03:33:50;;;;;;;;;0.00;0.00;;;;;8.35;73.20;100429.78;5037126;28;45451;-72
2022/03/03 03:36:16;;;;;;;;;0.00;0.00;;;;;8.26;73.09;100414.72;5037088;28;45348;-71
2022/03/03 03:38:42;;;;;;;;;0.00;0.00;;;;;8.10;73.23;100387.25;5037167;28;45556;-71
2022/03/03 03:41:07;;;;;;;;;0.00;0.00;;;;;8.14;73.34;100385.66;5040379;28;45354;-71
2022/03/03 03:43:33;;;;;;;;;0.00;0.00;;;;;8.08;73.54;100388.91;5040856;28;45461;-72
2022/03/03 03:45:58;;;;;;;;;0.00;0.00;;;;;8.16;73.76;100410.00;5040683;28;45422;-71
2022/03/03 03:48:24;;;;;;;;;0.00;0.00;;;;;8.09;73.60;100400.19;5040292;28;45346;-70
2022/03/03 03:50:50;;;;;;;;;0.00;0.00;;;;;8.19;73.51;100404.03;5040414;28;45239;-71
2022/03/03 03:53:16;;;;;;;;;0.00;0.00;;;;;8.09;73.75;100389.78;5040372;28;45391;-71
2022/03/03 03:55:41;;;;;;;;;0.00;0.00;;;;;8.02;73.30;100380.88;5040438;28;45259;-71
2022/03/03 03:58:07;;;;;;;;;0.00;0.00;;;;;8.06;73.97;100385.38;5040060;28;46541;-72
2022/03/03 04:00:33;;;;;;;;;1.00;0.00;;;;;7.90;73.67;100365.69;5040394;28;45300;-72
2022/03/03 04:02:58;;;;;;;;;0.25;0.00;;;;;7.96;73.74;100388.47;5040310;28;45354;-71
2022/03/03 04:05:24;;;;;;;;;0.00;0.00;;;;;7.80;74.21;100379.19;5040380;28;45504;-71
2022/03/03 04:07:49;;;;;;;;;0.75;0.75;;;;;7.73;74.42;100367.63;5039938;28;46398;-72
2022/03/03 04:10:15;;;;;;;;;0.00;0.00;;;;;7.66;74.70;100356.94;5039908;28;45456;-72
2022/03/03 04:12:41;;;;;;;;;0.75;0.00;;;;;7.75;74.59;100365.97;5040202;28;45654;-71
2022/03/03 04:15:08;;;;;;;;;0.00;0.00;;;;;7.57;74.67;100341.88;5040486;28;45367;-72
2022/03/03 04:17:33;;;;;;;;;0.75;0.75;;;;;7.64;74.82;100364.72;5040114;28;46940;-71
2022/03/03 04:19:59;;;;;;;;;0.00;0.00;;;;;7.69;74.55;100364.88;5039733;28;45327;-71
2022/03/03 04:22:25;;;;;;;;;0.00;0.00;;;;;7.50;74.83;100340.78;5039982;28;45483;-71
2022/03/03 04:24:50;;;;;;;;;0.50;0.00;;;;;7.63;74.72;100369.84;5039972;28;45249;-72
2022/03/03 04:27:16;;;;;;;;;1.00;0.00;;;;;7.49;75.17;100358.91;5039540;28;46619;-71
2022/03/03 04:29:42;;;;;;;;;1.00;1.00;;;;;7.34;74.88;100351.38;5039526;28;45323;-72
2022/03/03 04:32:08;;;;;;;;;0.00;0.00;;;;;7.19;74.39;100356.84;5039810;28;45272;-71
2022/03/03 04:34:34;;;;;;;;;0.00;0.00;;;;;7.13;75.61;100360.06;5040287;28;45521;-71
2022/03/03 04:37:00;;;;;;;;;0.00;0.00;;;;;7.03;76.13;100350.16;5039364;28;45382;-71
2022/03/03 04:39:26;;;;;;;;;0.25;0.25;;;;;7.05;76.52;100360.59;5039691;28;45468;-71
2022/03/03 04:41:51;;;;;;;;;0.00;0.00;;;;;7.01;76.43;100356.97;5037103;28;45435;-71
2022/03/03 04:44:17;;;;;;;;;0.00;0.00;;;;;7.00;76.01;100356.91;5037713;28;45402;-71
2022/03/03 04:46:43;;;;;;;;;0.00;0.00;;;;;6.94;75.96;100341.97;5037808;28;46179;-72
2022/03/03 04:49:08;;;;;;;;;1.00;0.25;;;;;6.95;76.26;100352.41;5036160;28;45371;-71
2022/03/03 04:51:36;;;;;;;;;2.00;1.00;;;;;7.00;76.51;100359.50;5037860;28;45450;-71
2022/03/03 04:54:05;;;;;;;;;2.00;2.00;;;;;7.00;76.57;100354.31;5037859;28;45244;-72
2022/03/03 04:56:30;;;;;;;;;1.00;1.00;;;;;7.03;76.19;100368.31;5037239;28;45495;-72
2022/03/03 04:58:56;;;;;;;;;1.00;1.00;;;;;6.90;76.69;100337.47;5037306;28;45478;-72
2022/03/03 05:01:21;;;;;;;;;1.00;1.00;;;;;6.90;76.69;100334.88;5037675;28;45453;-72
2022/03/03 05:03:47;;;;;;;;;0.00;0.00;;;;;6.75;76.69;100315.25;5037598;28;45441;-72
2022/03/03 05:06:12;;;;;;;;;0.00;0.00;;;;;6.90;76.84;100343.56;5037178;28;46523;-72
2022/03/03 05:08:38;;;;;;;;;2.00;2.00;;;;;6.94;76.81;100348.06;5038536;28;45368;-73
2022/03/03 05:11:03;;;;;;;;;27.75;27.75;;;;;6.89;76.49;100341.78;5038791;28;45899;-71
2022/03/03 05:13:29;;;;;;;;;1.00;1.00;;;;;6.76;76.59;100313.53;5037428;28;45458;-71
2022/03/03 05:15:55;;;;;;;;;2.25;2.25;;;;;6.92;76.58;100341.91;5037024;28;46005;-72
2022/03/03 05:18:20;;;;;;;;;21.25;20.75;;;;;6.96;76.40;100343.81;5036972;28;45612;-72
2022/03/03 05:20:46;;;;;;;;;22.50;20.00;;;;;6.99;77.05;100343.06;5037062;28;45308;-71
2022/03/03 05:23:12;;;;;;;;;9.50;9.50;;;;;6.94;76.78;100323.78;5037403;28;45486;-71
2022/03/03 05:25:37;;;;;;;;;11.25;11.25;;;;;7.04;76.07;100325.03;5037132;28;45484;-73
2022/03/03 05:28:03;;;;;;;;;1.25;1.00;;;;;7.11;75.65;100340.06;5037078;28;45478;-71
2022/03/03 05:30:29;;;;;;;;;2.00;2.00;;;;;7.12;75.95;100308.06;5037106;28;45444;-73
2022/03/03 05:32:55;;;;;;;;;0.00;0.00;;;;;7.19;75.45;100288.44;5037193;28;45440;-72
2022/03/03 05:35:21;;;;;;;;;0.00;0.00;;;;;7.43;74.40;100293.69;5035472;28;46354;-72
2022/03/03 05:37:47;;;;;;;;;1.00;1.00;;;;;7.60;74.06;100282.22;5052225;28;45362;-72
2022/03/03 05:40:13;;;;;;;;;1.00;1.00;;;;;7.93;73.48;100299.88;5036897;28;45315;-72
2022/03/03 05:42:39;;;;;;;;;1.00;1.00;;;;;7.92;73.22;100275.59;5037206;28;45828;-72
2022/03/03 05:45:05;;;;;;;;;1.00;1.00;;;;;8.19;72.86;100289.53;5036701;28;45531;-71
2022/03/03 05:47:31;;;;;;;;;2.00;2.00;;;;;8.25;72.45;100279.34;5036722;28;45333;-73
2022/03/03 05:49:58;;;;;;;;;2.00;2.00;;;;;8.27;71.95;100264.66;5036573;28;45382;-72
2022/03/03 05:52:24;;;;;;;;;1.00;1.00;;;;;8.44;71.72;100287.00;5036920;28;45416;-70
2022/03/03 05:54:50;;;;;;;;;3.75;3.50;;;;;8.40;71.46;100261.66;5036425;28;45489;-71
2022/03/03 05:57:20;;;;;;;;;3.00;2.00;;;;;8.56;71.46;100282.19;5036453;28;45401;-71
2022/03/03 05:59:51;;;;;;;;;3.00;2.50;;;;;8.55;70.98;100272.63;5036607;28;45627;-71
2022/03/03 06:02:18;;;;;;;;;0.75;0.75;;;;;8.66;70.72;100275.59;5033744;28;45354;-71
2022/03/03 06:04:45;;;;;;;;;1.25;1.00;;;;;8.74;70.66;100274.13;5036056;28;45463;-69
2022/03/03 06:07:17;;;;;;;;;1.00;1.00;;;;;8.80;70.30;100273.44;5036330;28;45236;-70
2022/03/03 06:09:48;;;;;;;;;1.00;1.00;;;;;8.66;70.52;100239.13;5036543;28;45485;-70
2022/03/03 06:12:22;;;;;;;;;1.50;0.00;;;;;8.86;70.13;100265.81;5034245;28;45611;-69
2022/03/03 06:14:53;;;;;;;;;1.50;1.00;;;;;8.86;70.03;100247.59;5035955;28;46348;-69
2022/03/03 06:17:21;;;;;;;;;1.75;1.75;;;;;8.88;69.80;100250.25;5036154;28;45542;-70
2022/03/03 06:19:49;;;;;;;;;1.00;1.00;;;;;8.88;69.65;100239.81;5036016;28;45454;-69
2022/03/03 06:22:15;;;;;;;;;0.00;0.00;;;;;8.95;69.64;100239.16;5035120;28;45522;-69
2022/03/03 06:24:41;;;;;;;;;0.25;0.25;;;;;8.98;69.42;100225.38;5035875;28;45507;-69
2022/03/03 06:27:08;;;;;;;;;1.00;1.00;;;;;9.10;69.16;100244.00;5036094;28;45374;-69
2022/03/03 06:29:34;;;;;;;;;0.00;0.00;;;;;9.12;68.98;100231.88;5036355;28;45442;-69
2022/03/03 06:32:02;;;;;;;;;0.50;0.50;;;;;9.19;68.60;100231.25;5036714;28;45402;-69
2022/03/03 06:34:28;;;;;;;;;0.00;0.00;;;;;9.32;67.85;100229.88;5037340;28;46149;-69
2022/03/03 06:36:54;;;;;;;;;0.25;0.00;;;;;9.41;67.55;100235.38;5036935;28;45496;-70
2022/03/03 06:39:20;;;;;;;;;1.00;0.75;;;;;9.46;67.35;100230.28;5037510;28;45387;-69
2022/03/03 06:41:45;;;;;;;;;0.25;0.25;;;;;9.42;67.28;100218.00;5037799;28;45522;-72
2022/03/03 06:44:11;;;;;;;;;1.00;1.00;;;;;9.42;66.95;100202.38;5036916;28;45665;-72
2022/03/03 06:46:36;;;;;;;;;1.00;1.00;;;;;9.62;66.69;100231.63;5036203;28;45462;-72
2022/03/03 06:49:03;;;;;;;;;2.00;1.00;;;;;9.61;66.63;100220.31;5037609;28;45256;-72
2022/03/03 06:51:33;;;;;;;;;3.75;2.00;;;;;9.59;66.46;100211.56;5037803;28;45334;-69
2022/03/03 06:54:03;;;;;;;;;0.00;0.00;;;;;9.75;66.78;100231.13;5037492;28;45456;-69
2022/03/03 06:56:35;;;;;;;;;1.25;1.00;;;;;9.75;66.37;100225.91;5037406;28;45371;-70
2022/03/03 06:59:01;;;;;;;;;2.00;1.00;;;;;9.83;66.19;100233.94;5037403;28;45382;-70
2022/03/03 07:01:28;;;;;;;;;2.00;2.00;;;;;9.88;66.06;100229.75;5037556;28;45405;-72
2022/03/03 07:03:55;;;;;;;;;1.00;1.00;;;;;9.85;66.16;100216.63;5037280;28;45621;-70
2022/03/03 07:06:22;;;;;;;;;1.00;1.00;;;;;9.82;65.63;100209.56;5035804;28;45318;-70
2022/03/03 07:08:53;;;;;;;;;1.00;1.00;;;;;9.96;65.73;100221.28;5037365;28;45298;-70
2022/03/03 07:11:20;;;;;;;;;1.00;0.00;;;;;10.02;65.46;100220.56;5037313;28;45287;-70
2022/03/03 07:13:46;;;;;;;;;0.00;0.00;;;;;10.11;65.17;100225.16;5036773;28;45251;-70
2022/03/03 07:16:22;;;;;;;;;0.33;0.33;;;;;10.13;64.94;100213.91;5037298;28;45304;-69
2022/03/03 07:18:52;;;;;;;;;2.00;1.00;;;;;9.95;64.64;100172.56;5037175;28;45491;-71
2022/03/03 07:21:36;;;;;;;;;1.00;1.00;;;;;10.29;64.60;100214.31;5036947;28;45433;-70
2022/03/03 07:24:33;;;;;;;;;0.00;0.00;;;;;10.38;64.28;100213.69;5031331;28;45498;-69
2022/03/03 07:27:04;;;;;;;;;1.00;1.00;;;;;10.46;64.08;100222.59;5013105;28;45364;-71
2022/03/03 07:29:33;;;;;;;;;0.00;0.00;;;;;10.46;63.97;100202.56;5022955;28;45493;-67
2022/03/03 07:32:06;;;;;;;;;2.00;2.00;;;;;10.62;63.25;100205.56;5031387;28;45386;-67
2022/03/03 07:34:34;;;;;;;;;3.00;2.00;;;;;10.67;63.13;100193.53;5021425;28;45485;-67
2022/03/03 07:37:07;;;;;;;;;2.50;1.75;;;;;10.83;62.66;100207.81;5035526;28;45497;-66
2022/03/03 07:39:42;;;;;;;;;2.00;1.25;;;;;10.95;62.76;100208.97;5031049;28;45496;-67
2022/03/03 07:42:12;;;;;;;;;2.25;1.00;;;;;11.04;62.03;100200.50;5048456;28;45437;-67
2022/03/03 07:44:39;;;;;;;;;2.00;2.00;;;;;11.09;62.36;100195.34;5016090;28;45363;-69
2022/03/03 07:47:07;;;;;;;;;2.00;2.00;;;;;11.21;61.62;100203.47;5033813;28;45509;-66
2022/03/03 07:49:33;;;;;;;;;2.00;2.00;;;;;11.30;61.33;100203.66;5035809;28;45447;-67
2022/03/03 07:51:58;;;;;;;;;2.75;2.75;;;;;11.41;60.71;100201.25;5034670;28;45589;-67
2022/03/03 07:54:24;;;;;;;;;2.00;2.00;;;;;11.55;60.70;100201.56;5035444;28;45480;-69
2022/03/03 07:56:55;;;;;;;;;2.00;1.00;;;;;11.59;60.47;100190.31;5032673;28;45425;-68
2022/03/03 07:59:26;;;;;;;;;1.00;1.00;;;;;11.73;60.19;100191.44;5025038;28;45411;-68
2022/03/03 08:01:56;;;;;;;;;0.00;0.00;;;;;11.81;59.44;100188.97;5041585;28;45617;-69
2022/03/03 08:04:27;;;;;;;;;0.00;0.00;;;;;11.98;59.54;100197.19;5025143;28;46087;-68
2022/03/03 08:06:57;;;;;;;;;1.00;1.00;;;;;12.05;59.09;100191.22;5023965;28;45470;-66
2022/03/03 08:09:24;;;;;;;;;1.00;1.00;;;;;12.14;58.79;100188.75;5024722;28;45398;-68
2022/03/03 08:11:53;;;;;;;;;1.67;1.00;;;;;12.19;58.48;100191.44;5025892;28;45604;-68
2022/03/03 08:14:21;;;;;;;;;0.67;0.67;;;;;12.29;58.58;100189.88;5024736;28;45390;-68
2022/03/03 08:16:46;;;;;;;;;1.00;1.00;;;;;12.39;58.10;100183.94;5023981;28;45518;-68
2022/03/03 08:19:15;;;;;;;;;0.00;0.00;;;;;12.37;58.00;100164.69;5025690;28;45451;-68
2022/03/03 08:21:44;;;;;;;;;1.00;1.00;;;;;12.97;57.01;100181.38;5032326;28;45351;-69
2022/03/03 08:24:11;;;;;;;;;1.00;1.00;;;;;13.41;55.94;100181.13;5023703;28;45531;-68
2022/03/03 08:26:38;;;;;;;;;1.00;1.00;;;;;15.57;52.37;100175.00;5028181;28;45461;-68
2022/03/03 08:29:04;;;;;;;;;2.00;2.00;;;;;16.95;47.39;100155.81;5026995;28;45581;-68
2022/03/03 08:31:37;;;;;;;;;0.67;0.33;;;;;19.88;43.74;100149.94;5026986;28;45800;-68
2022/03/03 08:34:12;;;;;;;;;1.00;0.00;;;;;22.73;37.63;100137.09;5027674;28;46303;-68
2022/03/03 08:36:50;;;;;;;;;2.33;1.00;;;;;25.23;33.10;100126.59;5038386;28;45768;-68
2022/03/03 08:39:18;;;;;;;;;2.00;2.00;;;;;27.29;29.51;100139.59;5028177;28;45403;-69
2022/03/03 08:41:45;;;;;;;;;2.33;1.33;;;;;28.67;27.47;100118.59;5027531;28;46566;-68
2022/03/03 08:44:12;;;;;;;;;0.00;0.00;;;;;29.68;25.95;100131.97;5028421;28;45473;-68
2022/03/03 08:46:40;;;;;;;;;3.67;3.67;;;;;30.38;25.59;100122.66;5028138;28;45438;-69
2022/03/03 08:49:09;;;;;;;;;4.67;4.67;;;;;31.08;24.63;100123.81;5038562;28;45463;-69
2022/03/03 08:51:37;;;;;;;;;3.67;2.00;;;;;31.62;23.28;100133.09;5037495;28;45563;-69
2022/03/03 08:54:03;;;;;;;;;1.00;1.00;;;;;32.04;23.47;100113.22;5036947;28;45877;-70
2022/03/03 08:56:29;;;;;;;;;1.00;1.00;;;;;32.01;21.76;100123.34;5037635;28;45522;-87
2022/03/03 08:58:56;;;;;;;;;3.00;2.00;;;;;31.15;20.56;100107.25;5055713;28;45288;-87
2022/03/03 09:01:22;;;;;;;;;2.00;2.00;;;;;31.10;21.33;100115.63;5038374;28;45651;-80
2022/03/03 09:03:48;;;;;;;;;2.00;2.00;;;;;30.63;21.24;100039.38;5036122;28;45297;-83
2022/03/03 09:06:15;;;;;;;;;1.33;1.33;;;;;30.85;21.32;100054.22;5039674;28;45321;-81
2022/03/03 09:08:41;;;;;;;;;1.00;1.00;;;;;31.94;22.93;100113.91;5033713;28;45549;-73
2022/03/03 09:11:06;;;;;;;;;2.00;2.00;;;;;33.24;20.35;100101.44;5035378;28;45308;-73
2022/03/03 09:13:32;;;;;;;;;4.33;3.33;;;;;34.36;20.20;100103.13;5038778;28;45871;-73
2022/03/03 09:15:58;;;;;;;;;1.67;1.67;;;;;35.18;19.59;100103.13;5037432;28;45465;-73
2022/03/03 09:18:24;;;;;;;;;0.33;0.00;;;;;35.92;18.21;100097.13;5034035;28;45366;-73
2022/03/03 09:20:50;;;;;;;;;1.00;1.00;;;;;34.46;19.62;100106.84;5030689;28;45577;-73
2022/03/03 09:23:16;;;;;;;;;8.33;7.67;;;;;31.03;22.74;100114.28;5036066;28;47646;-73
2022/03/03 09:25:42;;;;;;;;;2.00;2.00;;;;;28.69;25.21;100116.69;5026663;28;45434;-72
2022/03/03 09:28:08;;;;;;;;;1.67;1.67;;;;;27.29;26.93;100110.09;5028312;28;45441;-73
2022/03/03 09:30:34;;;;;;;;;2.00;2.00;;;;;26.55;28.24;100111.50;5031808;28;45313;-72
2022/03/03 09:33:00;;;;;;;;;6.00;6.00;;;;;26.33;28.54;100116.91;5038418;28;45433;-73
2022/03/03 09:35:26;;;;;;;;;3.67;3.00;;;;;26.39;29.12;100105.94;5031591;28;45482;-72
2022/03/03 09:37:52;;;;;;;;;8.00;7.00;;;;;26.68;28.53;100114.56;5028265;28;45526;-74
2022/03/03 09:40:17;;;;;;;;;3.00;2.33;;;;;27.10;28.34;100110.03;5027892;28;45290;-72
2022/03/03 09:43:04;;;;;;;;;1.00;1.00;;;;;27.21;27.96;100093.44;5026658;28;46127;-73
2022/03/03 09:45:31;;;;;;;;;3.00;2.00;;;;;26.75;30.00;100104.44;5028328;28;45442;-76
2022/03/03 09:47:58;;;;;;;;;1.00;1.00;;;;;26.12;28.68;100104.41;5030087;28;45423;-73
2022/03/03 09:50:25;;;;;;;;;1.67;1.67;;;;;25.53;29.65;100095.16;5037533;28;45562;-73
2022/03/03 09:52:52;;;;;;;;;2.00;2.00;;;;;25.21;30.01;100107.94;5038031;28;45485;-73
2022/03/03 09:55:18;;;;;;;;;1.00;1.00;;;;;24.75;30.88;100104.25;5038079;28;45341;-73
2022/03/03 09:57:43;;;;;;;;;1.00;1.00;;;;;24.33;31.15;100097.66;5038291;28;45366;-76
2022/03/03 10:00:12;;;;;;;;;2.00;2.00;;;;;24.08;31.60;100102.06;5038342;28;45442;-73
2022/03/03 10:02:55;;;;;;;;;2.33;2.00;;;;;23.67;32.92;100104.22;5037992;28;45469;-72
2022/03/03 10:05:39;;;;;;;;;6.00;5.33;;;;;23.24;33.94;100082.44;5038012;28;45279;-73
2022/03/03 10:08:11;;;;;;;;;4.00;4.00;;;;;23.16;33.81;100111.97;5036768;28;45364;-72
2022/03/03 10:10:39;;;;;;;;;2.67;2.67;;;;;22.91;33.60;100097.56;5038342;28;45550;-72
2022/03/03 10:13:06;;;;;;;;;3.67;3.67;;;;;22.82;33.92;100085.38;5037581;28;45430;-73
2022/03/03 10:15:33;;;;;;;;;4.67;4.33;;;;;22.93;34.10;100107.25;5037815;28;45364;-72
2022/03/03 10:18:02;;;;;;;;;5.00;5.00;;;;;23.18;33.87;100102.13;5037825;28;45247;-74
2022/03/03 10:20:29;;;;;;;;;6.00;5.00;;;;;23.38;33.26;100090.00;5037972;28;45473;-72
2022/03/03 10:22:59;;;;;;;;;3.00;3.00;;;;;23.74;32.64;100092.47;5037270;28;45556;-72
2022/03/03 10:25:33;;;;;;;;;3.00;3.00;;;;;23.75;32.61;100067.53;5035646;28;45394;-72
2022/03/03 10:28:29;;;;;;;;;2.00;2.00;;;;;23.92;32.97;100096.38;5037258;28;45741;-75
2022/03/03 10:31:05;;;;;;;;;1.67;1.67;;;;;24.51;32.05;100098.88;5035642;28;45442;-75
2022/03/03 10:33:38;;;;;;;;;4.00;4.00;;;;;25.06;31.87;100095.13;5035943;28;45507;-76
2022/03/03 10:36:12;;;;;;;;;2.00;2.00;;;;;25.13;31.60;100065.44;5037400;28;45445;-74
2022/03/03 10:38:54;;;;;;;;;2.00;2.00;;;;;25.15;30.80;100084.09;5037620;28;45235;-74
2022/03/03 10:41:51;;;;;;;;;2.00;2.00;;;;;25.07;31.18;100087.06;5037885;28;45260;-75
2022/03/03 10:44:32;;;;;;;;;3.00;3.00;;;;;24.74;31.23;100073.13;5036486;28;45350;-72
2022/03/03 10:47:11;;;;;;;;;1.67;1.67;;;;;24.56;31.88;100082.69;5037131;28;45554;-74
2022/03/03 10:49:47;;;;;;;;;6.00;5.00;;;;;24.35;32.80;100073.56;5037206;28;45491;-74
2022/03/03 10:52:25;;;;;;;;;1.67;1.00;;;;;24.14;33.89;100057.38;5037361;28;45192;-74
2022/03/03 10:54:55;;;;;;;;;3.00;3.00;;;;;23.94;32.72;100068.72;5037575;28;45341;-74
2022/03/03 10:57:56;;;;;;;;;2.00;2.00;;;;;23.82;33.47;100077.13;5037661;28;45455;-74
2022/03/03 11:00:27;;;;;;;;;6.00;4.67;;;;;23.63;33.28;100071.44;5037615;28;45295;-72
2022/03/03 11:02:58;;;;;;;;;3.00;3.00;;;;;23.51;33.19;100078.03;5037806;28;45176;-72
2022/03/03 11:05:26;;;;;;;;;2.00;1.67;;;;;23.39;33.48;100073.94;5037772;28;46660;-72
2022/03/03 11:07:56;;;;;;;;;5.33;3.67;;;;;23.18;33.31;100063.97;5035962;28;45478;-73
2022/03/03 11:10:29;;;;;;;;;3.00;3.00;;;;;23.08;33.41;100062.47;5037657;28;45413;-73
2022/03/03 11:12:55;;;;;;;;;2.33;2.33;;;;;22.98;34.11;100078.69;5037358;28;45265;-73
2022/03/03 11:15:23;;;;;;;;;5.00;5.00;;;;;22.87;33.68;100078.13;5035998;28;45544;-73
2022/03/03 11:17:50;;;;;;;;;4.67;4.00;;;;;22.68;34.03;100056.47;5037269;28;45395;-73
2022/03/03 11:20:17;;;;;;;;;3.00;3.00;;;;;22.81;34.15;100080.97;5037530;28;45240;-73
2022/03/03 11:22:45;;;;;;;;;4.00;3.67;;;;;22.66;34.58;100058.31;5037228;28;45522;-73
2022/03/03 11:25:16;;;;;;;;;3.00;3.00;;;;;22.65;34.65;100075.19;5036835;28;46067;-73
2022/03/03 11:27:44;;;;;;;;;5.67;4.67;;;;;22.62;34.20;100061.94;5035194;28;45509;-73
2022/03/03 11:30:31;;;;;;;;;4.00;4.00;;;;;22.65;34.51;100072.53;5036856;28;45886;-73
2022/03/03 11:33:43;;;;;;;;;3.67;3.00;;;;;22.65;34.74;100075.19;5036728;28;45449;-74
2022/03/03 11:36:08;;;;;;;;;2.67;2.67;;;;;22.63;34.75;100067.22;5036315;28;45966;-73